LSME - Emmen, Switzerland
Distance from HB9FEE: SW 14km
Updated: Sun, 18-Feb-2018 9:50pm CET
Overcast
Overcast
 Wind from N
Wind: N 6 km/h
Temperature: 1°C
Dew Point: -1°C
Humidity: 87%
Barometer: 1022 hPa
Clouds: Overcast
Visibility: 13 miles
Cloud details: Overcast 457 m
2018/02/18 20:50 LSME 182050Z AUTO 01003KT 330V040 8000NDV OVC015 01/M01 Q1022 RMK
LSZC - Buochs, Switzerland
Distance from HB9FEE: S 25km
Updated: Sun, 18-Feb-2018 10:20pm CET
Overcast
Overcast
 Wind from varies
Wind: varies 6 km/h
Temperature: 1°C
Dew Point: -1°C
Humidity: 87%
Barometer: 1021 hPa
Clouds: Overcast
Visibility: 7 km
Cloud details: Overcast 366 m
2018/02/18 21:20 LSZC 182120Z AUTO VRB03KT 7000 OVC012 01/M01 Q1021
 
LSMA - Alpnach, Switzerland
Distance from HB9FEE: SSW 29km
Updated: Sun, 18-Feb-2018 10:00pm CET

 Wind from NE
Wind: NE 9 km/h
2018/02/18 21:00 LSMA 182100Z AUTO 05005KT 020V080 ////NDV BKN016 BKN018 OVC033 01/M01 Q1021 RMK MIS
LSMD - Dubendorf, Switzerland
Distance from HB9FEE: NE 29km
Updated: Sun, 18-Feb-2018 9:50pm CET
Overcast
Overcast
 Wind from varies
Wind: varies 2 km/h
Temperature: 0°C
Dew Point: -2°C
Humidity: 87%
Barometer: 1022 hPa
Clouds: Overcast
Visibility: 13 miles
Cloud details: Few Clouds 335 m
Partly Cloudy 396 m
Overcast 488 m
2018/02/18 20:50 LSMD 182050Z AUTO VRB01KT 8000NDV FEW011 SCT013 OVC016 00/M02 Q1022 RMK
 
LSZH - Zurich-Kloten (a, Switzerland
Distance from HB9FEE: NNE 33km
Updated: Sun, 18-Feb-2018 10:20pm CET
Mostly Cloudy
Mostly Cloudy
 Wind from N
Wind: N 4 km/h
Temperature: 0°C
Dew Point: -3°C
Humidity: 80%
Barometer: 1022 hPa
Clouds: Mostly Cloudy
Visibility: 8 km
Cloud details: Few Clouds 305 m
Partly Cloudy 457 m
Mostly Cloudy 975 m
2018/02/18 21:20 LSZH 182120Z 35002KT 8000 FEW010 SCT015 BKN032 M00/M03 Q1022 NOSIG
LSMM - Meiringen, Switzerland
Distance from HB9FEE: SSW 54km
Updated: Sun, 18-Feb-2018 9:50pm CET
Overcast
Overcast
 Wind from NE
Wind: NE 20 km/h
Temperature: 1°C
Wind Chill: -4°C
Dew Point: -2°C
Humidity: 81%
Barometer: 1020 hPa
Clouds: Overcast
Visibility: 13 miles
Cloud details: Few Clouds 579 m
Mostly Cloudy 701 m
Overcast 975 m
2018/02/18 20:50 LSMM 182050Z AUTO 04011KT 010V070 8000NDV FEW019 BKN023 OVC032 01/M02 Q1020 RMK
 
LSZB - Bern/Belp, Switzerland
Distance from HB9FEE: WSW 76km
Updated: Sun, 18-Feb-2018 10:20pm CET
Overcast
Overcast
 Wind from WNW
Wind: WNW 9 km/h
Temperature: 1°C
Wind Chill: -2°C
Dew Point: -1°C
Humidity: 87%
Barometer: 1020 hPa
Clouds: Overcast
Visibility: 8 km
Cloud details: Overcast 884 m
2018/02/18 21:20 LSZB 182120Z AUTO 29005KT 8000 OVC029 01/M01 Q1020
LSZG - Grenchen, Switzerland
Distance from HB9FEE: W 76km
Updated: Sun, 18-Feb-2018 10:20pm CET
Partly Cloudy
Partly Cloudy
 Wind from ENE
Wind: ENE 11 km/h
Temperature: 1°C
Wind Chill: -2°C
Dew Point: -2°C
Humidity: 81%
Barometer: 1021 hPa
Clouds: Partly Cloudy
Visibility: 10 km
Cloud details: Mostly Cloudy 549 m
Partly Cloudy 792 m
2018/02/18 21:20 LSZG 182120Z AUTO 06006KT 9999 BKN018 SCT026 01/M02 Q1021
 
LFSB - Bale/Mulhouse, France
Distance from HB9FEE: NW 82km
Updated: Sun, 18-Feb-2018 10:00pm CET
Mist, Overcast
Mist, Overcast
 Wind from N
Wind: N 6 km/h
Temperature: 1°C
Dew Point: 0°C
Humidity: 93%
Barometer: 1022 hPa
Summary: Mist
Clouds: Overcast
Visibility: 5 km
Cloud details: Few Clouds 305 m
Overcast 1067 m
2018/02/18 21:00 LFSB 182100Z 35003KT 320V030 5000 BR FEW010 OVC035 01/M00 Q1022 BECMG 3000
LSZR - Rheineck/Altenrh, Switzerland
Distance from HB9FEE: ENE 92km
Updated: Sun, 18-Feb-2018 10:20pm CET
Overcast
Overcast
 Wind from WSW
Wind: WSW 7 km/h
Temperature: 1°C
Wind Chill: -2°C
Dew Point: -1°C
Humidity: 87%
Barometer: 1022 hPa
Clouds: Overcast
Visibility: 7 km
Cloud details: Overcast 305 m
2018/02/18 21:20 LSZR 182120Z AUTO 25004KT 7000 OVC010 01/M01 Q1022
 
LSZL - Locarno, Switzerland
Distance from HB9FEE: SSE 119km
Updated: Sun, 18-Feb-2018 9:50pm CET
Light rain, Mostly cloudy
Light rain, Mostly cloudy
 Wind from varies
Wind: varies 6 km/h
Temperature: 6°C
Dew Point: 3°C
Humidity: 81%
Barometer: 1020 hPa
Summary: Light Rain
Clouds: Mostly Cloudy
Visibility: 13 miles
Cloud details: Mostly Cloudy 640 m
2018/02/18 20:50 LSZL 182050Z AUTO VRB03KT 8000NDV -RA BKN021 06/03 Q1020 RMK
LSMP - Payerne (mil/Aut, Switzerland
Distance from HB9FEE: WSW 121km
Updated: Sun, 18-Feb-2018 9:50pm CET
Overcast
Overcast
 Wind from ENE
Wind: ENE 13 km/h
Temperature: 1°C
Wind Chill: -3°C
Dew Point: -2°C
Humidity: 81%
Barometer: 1021 hPa
Clouds: Overcast
Visibility: 16 miles
Cloud details: Overcast 732 m
2018/02/18 20:50 LSMP 182050Z AUTO 06007KT 9999NDV OVC024 01/M02 Q1021 RMK
 
LSGC - Les Eplatures, Switzerland
Distance from HB9FEE: W 123km
Updated: Sun, 18-Feb-2018 10:20pm CET
Overcast
Overcast
 Wind from ENE
Wind: ENE 7 km/h
Temperature: -4°C
Wind Chill: -7°C
Dew Point: -5°C
Humidity: 93%
Barometer: 1018 hPa
Clouds: Overcast
Visibility: 10 km
Cloud details: Overcast 244 m
2018/02/18 21:20 LSGC 182120Z AUTO 07004KT 050V120 9999 OVC008 M04/M05 Q1018
LSZS - Samedan, Switzerland
Distance from HB9FEE: ESE 133km
Updated: Sun, 18-Feb-2018 10:20pm CET
Overcast
Overcast
 Wind from NNE
Wind: NNE 13 km/h
Temperature: -6°C
Wind Chill: -12°C
Dew Point: -9°C
Humidity: 80%
Barometer: 1015 hPa
Clouds: Overcast
Visibility: 10 km
Cloud details: Overcast 1311 m
2018/02/18 21:20 LSZS 182120Z AUTO 03007KT 9999 OVC043 M06/M09 Q1015
 
LSGS - Sion (mil/Civ/Au, Switzerland
Distance from HB9FEE: SW 137km
Updated: Sun, 18-Feb-2018 10:20pm CET
Overcast
Overcast
 Wind from calm
Wind: Calm
Temperature: 2°C
Dew Point: -1°C
Humidity: 81%
Barometer: 1020 hPa
Clouds: Overcast
Visibility: 10 km
Cloud details: Overcast 762 m
2018/02/18 21:20 LSGS 182120Z AUTO 00000KT 9999 OVC025 02/M01 Q1020
LSZA - Lugano (pvt/Aut), Switzerland
Distance from HB9FEE: SSE 138km
Updated: Sun, 18-Feb-2018 10:20pm CET
Light drizzle, Partly cloudy
Light drizzle, Partly cloudy
 Wind from SSW
Wind: SSW 7 km/h
Temperature: 5°C
Wind Chill: 3°C
Dew Point: 2°C
Humidity: 81%
Barometer: 1021 hPa
Summary: Light Drizzle
Clouds: Partly Cloudy
Visibility: 10 km
Cloud details: Mostly Cloudy 518 m
Partly Cloudy 671 m
2018/02/18 21:20 LSZA 182120Z AUTO 21004KT 180V250 9999 -DZ BKN017 SCT022 05/02 Q1021